createdAt,value
2023-04-21T00:00:06.210Z,0
2023-04-21T00:01:05.889Z,0
2023-04-21T00:02:05.945Z,0
2023-04-21T00:03:05.976Z,0
2023-04-21T00:04:06.153Z,0
2023-04-21T00:05:05.979Z,0
2023-04-21T00:06:05.894Z,0
2023-04-21T00:07:05.878Z,0
2023-04-21T00:08:05.895Z,0
2023-04-21T00:09:05.889Z,0
2023-04-21T00:10:05.893Z,0
2023-04-21T00:11:05.883Z,0
2023-04-21T00:12:05.890Z,0
2023-04-21T00:13:05.905Z,0
2023-04-21T00:14:05.908Z,0
2023-04-21T00:15:05.883Z,0
2023-04-21T00:16:05.964Z,0
2023-04-21T00:17:05.891Z,0
2023-04-21T00:18:05.930Z,0
2023-04-21T00:19:05.892Z,0
2023-04-21T00:20:05.876Z,0
2023-04-21T00:21:05.904Z,0
2023-04-21T00:22:05.884Z,0
2023-04-21T00:23:05.893Z,0
2023-04-21T00:24:05.893Z,0
2023-04-21T00:25:05.911Z,0
2023-04-21T00:26:05.883Z,0
2023-04-21T00:27:05.913Z,0
2023-04-21T00:28:05.905Z,0
2023-04-21T00:29:05.903Z,0
2023-04-21T00:30:05.897Z,0
2023-04-21T00:31:05.905Z,0
2023-04-21T00:32:05.893Z,0
2023-04-21T00:33:05.899Z,0
2023-04-21T00:34:05.895Z,0
2023-04-21T00:35:05.889Z,0
2023-04-21T00:36:05.887Z,0
2023-04-21T00:37:05.884Z,0
2023-04-21T00:38:05.901Z,0
2023-04-21T00:39:05.883Z,0
2023-04-21T00:40:05.936Z,0
2023-04-21T00:41:05.886Z,0
2023-04-21T00:42:05.889Z,0
2023-04-21T00:43:05.906Z,0
2023-04-21T00:44:05.898Z,0
2023-04-21T00:45:05.904Z,0
2023-04-21T00:46:05.882Z,0
2023-04-21T00:47:06.011Z,0
2023-04-21T00:48:05.916Z,0
2023-04-21T00:49:05.888Z,0
2023-04-21T00:50:05.898Z,0
2023-04-21T00:51:05.890Z,0
2023-04-21T00:52:05.895Z,0
2023-04-21T00:53:05.905Z,0
2023-04-21T00:54:05.911Z,0
2023-04-21T00:55:05.901Z,0
2023-04-21T00:56:05.900Z,0
2023-04-21T00:57:05.891Z,0
2023-04-21T00:58:05.916Z,0
2023-04-21T00:59:05.938Z,0
2023-04-21T01:00:05.884Z,0
2023-04-21T01:01:05.910Z,0
2023-04-21T01:02:06.001Z,0
2023-04-21T01:03:06.081Z,0
2023-04-21T01:04:06.065Z,0
2023-04-21T01:05:05.894Z,0
2023-04-21T01:06:05.897Z,0
2023-04-21T01:07:05.917Z,0
2023-04-21T01:08:05.903Z,0
2023-04-21T01:09:05.898Z,0
2023-04-21T01:10:05.912Z,0
2023-04-21T01:11:05.896Z,0
2023-04-21T01:12:05.903Z,0
2023-04-21T01:13:05.898Z,0
2023-04-21T01:14:05.907Z,0
2023-04-21T01:15:05.890Z,0
2023-04-21T01:16:05.931Z,0
2023-04-21T01:17:05.898Z,0
2023-04-21T01:18:05.971Z,0
2023-04-21T01:19:05.928Z,0
2023-04-21T01:20:05.894Z,0
2023-04-21T01:21:05.918Z,0
2023-04-21T01:22:05.895Z,0
2023-04-21T01:23:05.902Z,0
2023-04-21T01:24:05.890Z,0
2023-04-21T01:25:05.913Z,0
2023-04-21T01:26:05.896Z,0
2023-04-21T01:27:05.897Z,0
2023-04-21T01:28:05.904Z,0
2023-04-21T01:29:05.910Z,0
2023-04-21T01:30:05.898Z,0
2023-04-21T01:31:05.897Z,0
2023-04-21T01:32:05.933Z,0
2023-04-21T01:33:05.909Z,0
2023-04-21T01:34:05.893Z,0
2023-04-21T01:35:05.899Z,0
2023-04-21T01:36:05.900Z,0
2023-04-21T01:37:05.888Z,0
2023-04-21T01:38:05.911Z,0
2023-04-21T01:39:05.892Z,0
2023-04-21T01:40:05.899Z,0
2023-04-21T01:41:05.882Z,0
2023-04-21T01:42:05.910Z,0
2023-04-21T01:43:05.911Z,0
2023-04-21T01:44:05.908Z,0
2023-04-21T01:45:05.911Z,0
2023-04-21T01:46:05.959Z,0
2023-04-21T01:47:05.886Z,0
2023-04-21T01:48:05.927Z,0
2023-04-21T01:49:05.903Z,0
2023-04-21T01:50:05.902Z,0
2023-04-21T01:51:05.908Z,0
2023-04-21T01:52:05.912Z,0
2023-04-21T01:53:05.901Z,0
2023-04-21T01:54:05.900Z,0
2023-04-21T01:55:05.896Z,0
2023-04-21T01:56:05.900Z,0
2023-04-21T01:57:05.940Z,0
2023-04-21T01:58:05.900Z,0
2023-04-21T01:59:05.944Z,0
2023-04-21T02:00:05.909Z,0
2023-04-21T02:01:05.924Z,0
2023-04-21T02:02:06.033Z,0
2023-04-21T02:03:05.988Z,0
2023-04-21T02:04:06.129Z,0
2023-04-21T02:05:05.893Z,0
2023-04-21T02:06:05.899Z,0
2023-04-21T02:07:05.913Z,0
2023-04-21T02:08:05.909Z,0
2023-04-21T02:09:05.909Z,0
2023-04-21T02:10:05.916Z,0
2023-04-21T02:11:05.894Z,0
2023-04-21T02:12:05.901Z,0
2023-04-21T02:13:05.914Z,0
2023-04-21T02:14:05.913Z,0
2023-04-21T02:15:05.904Z,0
2023-04-21T02:16:12.739Z,0
2023-04-21T02:17:05.893Z,0
2023-04-21T02:18:05.952Z,0
2023-04-21T02:19:05.906Z,0
2023-04-21T02:20:05.902Z,0
2023-04-21T02:21:05.894Z,0
2023-04-21T02:22:05.903Z,0
2023-04-21T02:23:05.907Z,0
2023-04-21T02:24:05.887Z,0
2023-04-21T02:25:05.940Z,0
2023-04-21T02:26:05.898Z,0
2023-04-21T02:27:05.907Z,0
2023-04-21T02:28:05.899Z,0
2023-04-21T02:29:05.909Z,0
2023-04-21T02:30:05.912Z,0
2023-04-21T02:31:05.942Z,0
2023-04-21T02:33:05.928Z,0
2023-04-21T02:34:05.900Z,0
2023-04-21T02:35:05.899Z,0
2023-04-21T02:36:05.910Z,0
2023-04-21T02:37:05.896Z,0
2023-04-21T02:38:05.914Z,0
2023-04-21T02:39:05.885Z,0
2023-04-21T02:40:05.906Z,0
2023-04-21T02:41:05.898Z,0
2023-04-21T02:42:05.927Z,0
2023-04-21T02:43:05.909Z,0
2023-04-21T02:44:05.912Z,0
2023-04-21T02:45:05.901Z,0
2023-04-21T02:46:05.925Z,0
2023-04-21T02:47:05.924Z,0
2023-04-21T02:48:05.983Z,0
2023-04-21T02:49:05.900Z,0
2023-04-21T02:50:05.907Z,0
2023-04-21T02:51:05.895Z,0
2023-04-21T02:52:05.880Z,0
2023-04-21T02:53:05.909Z,0
2023-04-21T02:54:05.912Z,0
2023-04-21T02:55:05.899Z,0
2023-04-21T02:56:05.909Z,0
2023-04-21T02:57:05.904Z,0
2023-04-21T02:58:05.898Z,0
2023-04-21T02:59:05.917Z,0
2023-04-21T03:00:05.898Z,0
2023-04-21T03:01:05.899Z,0
2023-04-21T03:02:05.906Z,0
2023-04-21T03:03:05.991Z,0
2023-04-21T03:04:05.968Z,0
2023-04-21T03:05:05.892Z,0
2023-04-21T03:06:05.890Z,0
2023-04-21T03:07:05.897Z,0
2023-04-21T03:08:05.918Z,0
2023-04-21T03:09:05.893Z,0
2023-04-21T03:10:05.900Z,0
2023-04-21T03:11:05.893Z,0
2023-04-21T03:12:05.886Z,0
2023-04-21T03:13:05.911Z,0
2023-04-21T03:14:05.922Z,0
2023-04-21T03:15:05.902Z,0
2023-04-21T03:16:05.952Z,0
2023-04-21T03:17:05.902Z,0
2023-04-21T03:18:05.955Z,0
2023-04-21T03:19:05.904Z,0
2023-04-21T03:20:05.904Z,0
2023-04-21T03:21:05.894Z,0
2023-04-21T03:22:05.902Z,0
2023-04-21T03:23:05.909Z,0
2023-04-21T03:24:05.892Z,0
2023-04-21T03:25:05.896Z,0
2023-04-21T03:26:05.908Z,0
2023-04-21T03:27:05.892Z,0
2023-04-21T03:28:05.906Z,1
2023-04-21T03:29:05.921Z,1
2023-04-21T03:30:05.886Z,1
2023-04-21T03:31:05.900Z,3
2023-04-21T03:32:05.958Z,5
2023-04-21T03:33:05.931Z,5
2023-04-21T03:34:05.903Z,7
2023-04-21T03:35:05.899Z,9
2023-04-21T03:36:05.894Z,11
2023-04-21T03:37:05.888Z,12
2023-04-21T03:38:05.909Z,16
2023-04-21T03:39:16.844Z,18
2023-04-21T03:40:05.900Z,20
2023-04-21T03:41:05.896Z,25
2023-04-21T03:42:05.882Z,29
2023-04-21T03:43:05.913Z,35
2023-04-21T03:44:05.908Z,40
2023-04-21T03:45:05.908Z,46
2023-04-21T03:46:05.945Z,53
2023-04-21T03:47:05.914Z,60
2023-04-21T03:48:05.952Z,70
2023-04-21T03:49:05.898Z,79
2023-04-21T03:50:05.909Z,88
2023-04-21T03:51:05.884Z,99
2023-04-21T03:52:05.908Z,112
2023-04-21T03:53:05.912Z,125
2023-04-21T03:54:05.895Z,140
2023-04-21T03:55:05.893Z,156
2023-04-21T03:56:05.886Z,171
2023-04-21T03:57:05.894Z,189
2023-04-21T03:58:05.904Z,208
2023-04-21T03:59:05.919Z,226
2023-04-21T04:00:05.887Z,250
2023-04-21T04:01:05.903Z,270
2023-04-21T04:02:05.995Z,289
2023-04-21T04:03:06.062Z,313
2023-04-21T04:04:06.157Z,339
2023-04-21T04:05:05.952Z,364
2023-04-21T04:06:05.896Z,390
2023-04-21T04:07:05.892Z,416
2023-04-21T04:08:05.908Z,444
2023-04-21T04:09:05.920Z,471
2023-04-21T04:10:05.893Z,503
2023-04-21T04:11:05.910Z,529
2023-04-21T04:12:05.892Z,562
2023-04-21T04:13:05.923Z,589
2023-04-21T04:14:05.927Z,619
2023-04-21T04:15:05.885Z,652
2023-04-21T04:16:05.985Z,683
2023-04-21T04:17:05.902Z,715
2023-04-21T04:18:05.935Z,750
2023-04-21T04:19:05.913Z,750
2023-04-21T04:20:05.883Z,811
2023-04-21T04:21:05.901Z,842
2023-04-21T04:22:05.899Z,871
2023-04-21T04:23:05.911Z,910
2023-04-21T04:24:05.896Z,934
2023-04-21T04:25:05.911Z,969
2023-04-21T04:26:05.920Z,1004
2023-04-21T04:27:05.894Z,1032
2023-04-21T04:28:05.921Z,1076
2023-04-21T04:29:05.925Z,1113
2023-04-21T04:30:05.886Z,1152
2023-04-21T04:31:05.922Z,1187
2023-04-21T04:32:05.896Z,1227
2023-04-21T04:33:05.951Z,1260
2023-04-21T04:34:05.889Z,1295
2023-04-21T04:35:05.892Z,1334
2023-04-21T04:36:05.891Z,1371
2023-04-21T04:37:05.900Z,1408
2023-04-21T04:38:05.903Z,1437
2023-04-21T04:39:06.373Z,1465
2023-04-21T04:40:05.880Z,1505
2023-04-21T04:41:05.899Z,1539
2023-04-21T04:42:05.898Z,1559
2023-04-21T04:43:05.930Z,1585
2023-04-21T04:44:05.903Z,1622
2023-04-21T04:45:05.913Z,1647
2023-04-21T04:46:05.907Z,1679
2023-04-21T04:47:06.147Z,1719
2023-04-21T04:48:05.926Z,1767
2023-04-21T04:49:05.977Z,1810
2023-04-21T04:50:05.986Z,1828
2023-04-21T04:51:05.914Z,1887
2023-04-21T04:52:05.936Z,1935
2023-04-21T04:53:05.905Z,1964
2023-04-21T04:54:05.916Z,2001
2023-04-21T04:55:05.918Z,2036
2023-04-21T04:56:05.896Z,2071
2023-04-21T04:57:05.947Z,2099
2023-04-21T04:58:05.915Z,2132
2023-04-21T04:59:05.951Z,2167
2023-04-21T05:00:05.923Z,2200
2023-04-21T05:01:05.890Z,2257
2023-04-21T05:02:06.012Z,2257
2023-04-21T05:03:06.052Z,2281
2023-04-21T05:04:06.093Z,2374
2023-04-21T05:05:06.025Z,2388
2023-04-21T05:06:05.948Z,2386
2023-04-21T05:07:05.911Z,2429
2023-04-21T05:08:05.943Z,2409
2023-04-21T05:09:05.936Z,2438
2023-04-21T05:10:05.939Z,2451
2023-04-21T05:11:05.952Z,2475
2023-04-21T05:12:05.896Z,2504
2023-04-21T05:13:05.921Z,2528
2023-04-21T05:14:05.947Z,2556
2023-04-21T05:15:05.891Z,2580
2023-04-21T05:16:05.937Z,2600
2023-04-21T05:17:05.940Z,2650
2023-04-21T05:18:05.945Z,2667
2023-04-21T05:19:05.952Z,2667
2023-04-21T05:20:05.898Z,2685
2023-04-21T05:21:05.945Z,2705
2023-04-21T05:22:05.923Z,2718
2023-04-21T05:23:05.916Z,2742
2023-04-21T05:24:05.936Z,2761
2023-04-21T05:25:05.970Z,2788
2023-04-21T05:26:05.924Z,2821
2023-04-21T05:27:05.944Z,2851
2023-04-21T05:28:05.941Z,2866
2023-04-21T05:29:05.930Z,2882
2023-04-21T05:30:05.908Z,2917
2023-04-21T05:31:05.899Z,2934
2023-04-21T05:32:05.985Z,2956
2023-04-21T05:33:06.031Z,2985
2023-04-21T05:34:05.920Z,3009
2023-04-21T05:35:05.915Z,3033
2023-04-21T05:36:05.886Z,3056
2023-04-21T05:37:05.958Z,3072
2023-04-21T05:38:05.911Z,3100
2023-04-21T05:39:05.892Z,3127
2023-04-21T05:40:05.909Z,3142
2023-04-21T05:41:05.908Z,3173
2023-04-21T05:42:05.892Z,3196
2023-04-21T05:43:05.912Z,3221
2023-04-21T05:44:05.927Z,3244
2023-04-21T05:45:05.901Z,3264
2023-04-21T05:46:05.964Z,3290
2023-04-21T05:47:05.899Z,3314
2023-04-21T05:48:05.960Z,3336
2023-04-21T05:49:05.902Z,3354
2023-04-21T05:50:05.885Z,3380
2023-04-21T05:51:05.899Z,3409
2023-04-21T05:52:05.904Z,3433
2023-04-21T05:53:05.915Z,3448
2023-04-21T05:54:05.992Z,3468
2023-04-21T05:55:05.903Z,3494
2023-04-21T05:56:05.900Z,3529
2023-04-21T05:57:05.909Z,3542
2023-04-21T05:58:05.909Z,3579
2023-04-21T05:59:05.969Z,3594
2023-04-21T06:00:05.895Z,3612
2023-04-21T06:01:05.898Z,3656
2023-04-21T06:02:05.970Z,3671
2023-04-21T06:03:06.016Z,3699
2023-04-21T06:04:06.513Z,3717
2023-04-21T06:05:06.264Z,3767
2023-04-21T06:06:05.931Z,3760
2023-04-21T06:07:05.891Z,3789
2023-04-21T06:08:05.912Z,3813
2023-04-21T06:09:05.905Z,3835
2023-04-21T06:10:05.908Z,3857
2023-04-21T06:11:05.889Z,3885
2023-04-21T06:12:05.918Z,3896
2023-04-21T06:13:05.905Z,3948
2023-04-21T06:14:05.912Z,3944
2023-04-21T06:15:05.898Z,3961
2023-04-21T06:16:05.999Z,4001
2023-04-21T06:17:05.901Z,4008
2023-04-21T06:18:05.979Z,4034
2023-04-21T06:19:05.914Z,4034
2023-04-21T06:20:05.875Z,4080
2023-04-21T06:21:05.897Z,4108
2023-04-21T06:22:05.898Z,4147
2023-04-21T06:23:05.911Z,4152
2023-04-21T06:24:05.903Z,4180
2023-04-21T06:25:05.895Z,4219
2023-04-21T06:26:05.890Z,4230
2023-04-21T06:27:05.952Z,4265
2023-04-21T06:28:05.914Z,4263
2023-04-21T06:29:05.908Z,4316
2023-04-21T06:30:05.893Z,4362
2023-04-21T06:31:08.687Z,4392
2023-04-21T06:32:05.996Z,4541
2023-04-21T06:33:06.012Z,6266
2023-04-21T06:34:05.893Z,8194
2023-04-21T06:35:05.881Z,8722
2023-04-21T06:36:05.896Z,8972
2023-04-21T06:37:05.892Z,9107
2023-04-21T06:38:05.901Z,9005
2023-04-21T06:39:05.891Z,9103
2023-04-21T06:40:05.882Z,9219
2023-04-21T06:41:05.890Z,9556
2023-04-21T06:42:05.905Z,10052
2023-04-21T06:43:05.920Z,10290
2023-04-21T06:44:05.910Z,10135
2023-04-21T06:45:05.905Z,9816
2023-04-21T06:46:05.901Z,10222
2023-04-21T06:47:05.946Z,10257
2023-04-21T06:48:05.992Z,10286
2023-04-21T06:49:05.892Z,10345
2023-04-21T06:50:05.885Z,10314
2023-04-21T06:51:05.884Z,10050
2023-04-21T06:52:05.878Z,10139
2023-04-21T06:53:05.898Z,10972
2023-04-21T06:54:05.887Z,10705
2023-04-21T06:55:05.894Z,10670
2023-04-21T06:56:05.898Z,11448
2023-04-21T06:57:05.887Z,10974
2023-04-21T06:58:05.904Z,11223
2023-04-21T06:59:05.938Z,11451
2023-04-21T07:00:05.997Z,11179
2023-04-21T07:01:05.922Z,10897
2023-04-21T07:02:05.913Z,11311
2023-04-21T07:03:05.961Z,11378
2023-04-21T07:04:06.123Z,11543
2023-04-21T07:05:05.917Z,11656
2023-04-21T07:06:05.897Z,11840
2023-04-21T07:07:05.902Z,11848
2023-04-21T07:08:05.914Z,11700
2023-04-21T07:09:05.903Z,11886
2023-04-21T07:10:05.886Z,12139
2023-04-21T07:11:05.897Z,12471
2023-04-21T07:12:05.897Z,12618
2023-04-21T07:13:06.705Z,12648
2023-04-21T07:14:05.904Z,12743
2023-04-21T07:15:05.889Z,12552
2023-04-21T07:16:05.888Z,12672
2023-04-21T07:17:06.008Z,12933
2023-04-21T07:18:05.978Z,13379
2023-04-21T07:19:05.889Z,13379
2023-04-21T07:20:05.887Z,13066
2023-04-21T07:21:05.903Z,13012
2023-04-21T07:22:05.891Z,13355
2023-04-21T07:23:05.896Z,13453
2023-04-21T07:24:05.912Z,13158
2023-04-21T07:25:05.899Z,13221
2023-04-21T07:26:05.896Z,13530
2023-04-21T07:27:05.890Z,13527
2023-04-21T07:28:05.902Z,13540
2023-04-21T07:29:05.915Z,13481
2023-04-21T07:30:05.895Z,13731
2023-04-21T07:31:05.919Z,14015
2023-04-21T07:32:05.896Z,13938
2023-04-21T07:33:06.111Z,13803
2023-04-21T07:34:05.897Z,13781
2023-04-21T07:35:05.913Z,14242
2023-04-21T07:36:05.896Z,14539
2023-04-21T07:37:05.900Z,14483
2023-04-21T07:38:05.903Z,14251
2023-04-21T07:39:05.899Z,14316
2023-04-21T07:40:05.886Z,14705
2023-04-21T07:41:05.882Z,14760
2023-04-21T07:42:05.891Z,14675
2023-04-21T07:43:05.916Z,14972
2023-04-21T07:44:05.903Z,15344
2023-04-21T07:45:05.896Z,15274
2023-04-21T07:46:05.938Z,14896
2023-04-21T07:47:05.890Z,14493
2023-04-21T07:48:05.926Z,14032
2023-04-21T07:49:05.893Z,14273
2023-04-21T07:50:05.897Z,14795
2023-04-21T07:51:05.904Z,14894
2023-04-21T07:52:05.890Z,14898
2023-04-21T07:53:05.915Z,14942
2023-04-21T07:54:05.899Z,14963
2023-04-21T07:55:05.894Z,14821
2023-04-21T07:56:05.891Z,14896
2023-04-21T07:57:05.887Z,15012
2023-04-21T07:58:05.905Z,14902
2023-04-21T07:59:05.920Z,14811
2023-04-21T08:00:05.893Z,14885
2023-04-21T08:01:05.894Z,15224
2023-04-21T08:02:05.939Z,16693
2023-04-21T08:03:06.009Z,15665
2023-04-21T08:04:06.036Z,15783
2023-04-21T08:05:06.220Z,15881
2023-04-21T08:06:06.014Z,15952
2023-04-21T08:07:06.119Z,15831
2023-04-21T08:08:05.923Z,15833
2023-04-21T08:09:05.894Z,16069
2023-04-21T08:10:05.884Z,16327
2023-04-21T08:11:05.903Z,16459
2023-04-21T08:12:05.892Z,16494
2023-04-21T08:13:05.913Z,16599
2023-04-21T08:14:05.915Z,16574
2023-04-21T08:15:05.934Z,16328
2023-04-21T08:16:05.983Z,16282
2023-04-21T08:17:05.903Z,16821
2023-04-21T08:18:05.955Z,17138
2023-04-21T08:19:05.908Z,17138
2023-04-21T08:20:05.898Z,17460
2023-04-21T08:21:05.895Z,17501
2023-04-21T08:22:05.895Z,17342
2023-04-21T08:23:05.970Z,17316
2023-04-21T08:24:05.926Z,17272
2023-04-21T08:25:05.893Z,17283
2023-04-21T08:26:05.889Z,17506
2023-04-21T08:27:05.913Z,17514
2023-04-21T08:28:05.906Z,17316
2023-04-21T08:29:05.910Z,17243
2023-04-21T08:30:05.885Z,17425
2023-04-21T08:31:05.980Z,17464
2023-04-21T08:32:06.030Z,18035
2023-04-21T08:33:05.984Z,18231
2023-04-21T08:34:05.898Z,18350
2023-04-21T08:35:05.937Z,18293
2023-04-21T08:36:15.185Z,18030
2023-04-21T08:37:05.932Z,17713
2023-04-21T08:38:05.900Z,17648
2023-04-21T08:39:05.884Z,17982
2023-04-21T08:40:05.888Z,18374
2023-04-21T08:41:05.893Z,18455
2023-04-21T08:42:05.906Z,18500
2023-04-21T08:43:05.921Z,18651
2023-04-21T08:44:05.966Z,18924
2023-04-21T08:45:05.906Z,19222
2023-04-21T08:46:05.943Z,19255
2023-04-21T08:47:05.894Z,19353
2023-04-21T08:48:06.034Z,18795
2023-04-21T08:49:05.900Z,18903
2023-04-21T08:50:05.886Z,19093
2023-04-21T08:51:05.896Z,18988
2023-04-21T08:52:05.893Z,18949
2023-04-21T08:53:05.903Z,19088
2023-04-21T08:54:05.896Z,20710
2023-04-21T08:55:05.900Z,20103
2023-04-21T08:57:15.182Z,19985
2023-04-21T08:58:05.916Z,19956
2023-04-21T08:59:05.915Z,20089
2023-04-21T09:00:08.057Z,20077
2023-04-21T09:01:06.042Z,20512
2023-04-21T09:02:05.953Z,20682
2023-04-21T09:03:13.196Z,20452
2023-04-21T09:04:06.017Z,20079
2023-04-21T09:05:06.186Z,20324
2023-04-21T09:06:06.185Z,19948
2023-04-21T09:07:05.894Z,20194
2023-04-21T09:08:05.905Z,20227
2023-04-21T09:09:05.894Z,20116
2023-04-21T09:10:05.905Z,20437
2023-04-21T09:11:05.925Z,20713
2023-04-21T09:12:05.902Z,20712
2023-04-21T09:13:05.906Z,20632
2023-04-21T09:14:05.920Z,20579
2023-04-21T09:15:05.919Z,20404
2023-04-21T09:16:08.428Z,20409
2023-04-21T09:17:05.951Z,20400
2023-04-21T09:18:05.916Z,20297
2023-04-21T09:19:05.903Z,20297
2023-04-21T09:20:05.886Z,20597
2023-04-21T09:21:05.903Z,20759
2023-04-21T09:22:05.904Z,20719
2023-04-21T09:23:05.916Z,21790
2023-04-21T09:24:05.913Z,21489
2023-04-21T09:25:05.895Z,21639
2023-04-21T09:26:05.903Z,21736
2023-04-21T09:27:05.901Z,21471
2023-04-21T09:28:05.904Z,21725
2023-04-21T09:29:05.906Z,21545
2023-04-21T09:30:05.888Z,21615
2023-04-21T09:31:05.948Z,21797
2023-04-21T09:32:05.900Z,22033
2023-04-21T09:33:13.297Z,21865
2023-04-21T09:34:05.954Z,21563
2023-04-21T09:35:05.898Z,21375
2023-04-21T09:36:05.919Z,21288
2023-04-21T09:37:05.910Z,21417
2023-04-21T09:38:05.910Z,21539
2023-04-21T09:40:05.908Z,21607
2023-04-21T09:41:05.884Z,21633
2023-04-21T09:42:05.907Z,21641
2023-04-21T09:43:05.928Z,19832
2023-04-21T09:44:05.920Z,20782
2023-04-21T09:46:05.961Z,20680
2023-04-21T09:47:05.905Z,20395
2023-04-21T09:48:05.984Z,22000
2023-04-21T09:49:05.893Z,21731
2023-04-21T09:50:05.906Z,21541
2023-04-21T09:51:24.301Z,21489
2023-04-21T09:52:18.761Z,21705
2023-04-21T09:53:05.908Z,22009
2023-04-21T09:54:12.957Z,21652
2023-04-21T09:55:05.941Z,21305
2023-04-21T09:56:05.918Z,20474
2023-04-21T09:57:05.880Z,20485
2023-04-21T09:58:05.918Z,20487
2023-04-21T09:59:05.925Z,21414
2023-04-21T10:00:05.890Z,21580
2023-04-21T10:01:05.916Z,21889
2023-04-21T10:02:06.102Z,22275
2023-04-21T10:03:06.045Z,22621
2023-04-21T10:04:05.955Z,22680
2023-04-21T10:05:06.150Z,22474
2023-04-21T10:06:06.001Z,22052
2023-04-21T10:07:05.893Z,21875
2023-04-21T10:08:05.913Z,21755
2023-04-21T10:09:05.883Z,22129
2023-04-21T10:10:05.897Z,22190
2023-04-21T10:11:05.898Z,21814
2023-04-21T10:12:08.492Z,22293
2023-04-21T10:13:05.917Z,17562
2023-04-21T10:14:05.908Z,22376
2023-04-21T10:15:05.904Z,22264
2023-04-21T10:16:05.920Z,22367
2023-04-21T10:17:05.908Z,23839
2023-04-21T10:18:06.073Z,22981
2023-04-21T10:19:05.893Z,22981
2023-04-21T10:20:05.908Z,22258
2023-04-21T10:21:05.900Z,22122
2023-04-21T10:22:05.890Z,21768
2023-04-21T10:23:05.911Z,21294
2023-04-21T10:24:05.899Z,21312
2023-04-21T10:25:05.915Z,21274
2023-04-21T10:26:05.903Z,22134
2023-04-21T10:27:05.912Z,22319
2023-04-21T10:28:05.913Z,22282
2023-04-21T10:29:05.913Z,22098
2023-04-21T10:30:05.882Z,21959
2023-04-21T10:31:05.971Z,22005
2023-04-21T10:32:08.565Z,22031
2023-04-21T10:33:06.193Z,22127
2023-04-21T10:34:05.902Z,21993
2023-04-21T10:35:05.900Z,21897
2023-04-21T10:36:05.904Z,21899
2023-04-21T10:37:05.892Z,21773
2023-04-21T10:38:07.024Z,21823
2023-04-21T10:39:05.900Z,21882
2023-04-21T10:40:05.883Z,21935
2023-04-21T10:41:05.906Z,22000
2023-04-21T10:42:05.894Z,20210
2023-04-21T10:43:05.926Z,10327
2023-04-21T10:44:05.907Z,7839
2023-04-21T10:45:05.898Z,8268
2023-04-21T10:46:05.893Z,22734
2023-04-21T10:47:05.909Z,22527
2023-04-21T10:48:05.964Z,21530
2023-04-21T10:49:05.917Z,22258
2023-04-21T10:50:05.881Z,22463
2023-04-21T10:51:05.898Z,22756
2023-04-21T10:52:05.961Z,18728
2023-04-21T10:53:05.904Z,12257
2023-04-21T10:54:05.894Z,11752
2023-04-21T10:55:05.913Z,15396
2023-04-21T10:56:05.906Z,23532
2023-04-21T10:57:05.892Z,22995
2023-04-21T10:58:05.907Z,22621
2023-04-21T10:59:05.908Z,23045
2023-04-21T11:00:05.899Z,22807
2023-04-21T11:01:05.937Z,23412
2023-04-21T11:02:05.963Z,12635
2023-04-21T11:03:06.195Z,10017
2023-04-21T11:04:06.031Z,9990
2023-04-21T11:05:05.991Z,23456
2023-04-21T11:06:05.896Z,23895
2023-04-21T11:07:05.894Z,22232
2023-04-21T11:08:05.919Z,22448
2023-04-21T11:09:05.895Z,22483
2023-04-21T11:10:05.874Z,9697
2023-04-21T11:11:05.893Z,9936
2023-04-21T11:12:05.884Z,22663
2023-04-21T11:13:05.920Z,13149
2023-04-21T11:14:05.912Z,9498
2023-04-21T11:15:05.895Z,8961
2023-04-21T11:16:05.921Z,9059
2023-04-21T11:17:05.956Z,9802
2023-04-21T11:18:06.029Z,9803
2023-04-21T11:19:05.899Z,9803
2023-04-21T11:20:05.886Z,9916
2023-04-21T11:21:05.902Z,21388
2023-04-21T11:22:05.894Z,14306
2023-04-21T11:23:05.916Z,10102
2023-04-21T11:24:05.896Z,10130
2023-04-21T11:25:05.895Z,10331
2023-04-21T11:26:05.885Z,11140
2023-04-21T11:27:05.902Z,20726
2023-04-21T11:28:05.907Z,10616
2023-04-21T11:29:05.903Z,9464
2023-04-21T11:30:05.910Z,10073
2023-04-21T11:31:05.921Z,12054
2023-04-21T11:32:05.896Z,11405
2023-04-21T11:33:05.983Z,15088
2023-04-21T11:34:05.902Z,12747
2023-04-21T11:35:05.893Z,9715
2023-04-21T11:36:05.907Z,8834
2023-04-21T11:37:05.889Z,8406
2023-04-21T11:38:05.908Z,8379
2023-04-21T11:39:05.910Z,8734
2023-04-21T11:40:05.883Z,8191
2023-04-21T11:41:05.886Z,8274
2023-04-21T11:42:05.891Z,8508
2023-04-21T11:43:05.902Z,8578
2023-04-21T11:44:05.909Z,8526
2023-04-21T11:45:05.914Z,8862
2023-04-21T11:46:05.927Z,10364
2023-04-21T11:47:05.895Z,22098
2023-04-21T11:48:05.951Z,22317
2023-04-21T11:49:05.891Z,22181
2023-04-21T11:50:05.890Z,22273
2023-04-21T11:51:06.162Z,9715
2023-04-21T11:52:05.905Z,9748
2023-04-21T11:53:05.908Z,9809
2023-04-21T11:54:05.915Z,10080
2023-04-21T11:55:05.911Z,21384
2023-04-21T11:56:05.910Z,21135
2023-04-21T11:57:05.896Z,18605
2023-04-21T11:58:05.920Z,21519
2023-04-21T11:59:05.930Z,21786
2023-04-21T12:00:05.888Z,19115
2023-04-21T12:01:05.927Z,10935
2023-04-21T12:02:05.911Z,9874
2023-04-21T12:03:06.005Z,10382
2023-04-21T12:04:06.165Z,10012
2023-04-21T12:05:06.019Z,21220
2023-04-21T12:06:05.932Z,19969
2023-04-21T12:07:05.895Z,14789
2023-04-21T12:08:05.908Z,10734
2023-04-21T12:09:05.900Z,11245
2023-04-21T12:10:05.886Z,22691
2023-04-21T12:11:05.885Z,20914
2023-04-21T12:12:05.894Z,20946
2023-04-21T12:13:05.900Z,22675
2023-04-21T12:14:05.911Z,21438
2023-04-21T12:15:05.895Z,20398
2023-04-21T12:16:05.923Z,21145
2023-04-21T12:17:05.893Z,20833
2023-04-21T12:18:05.915Z,20547
2023-04-21T12:19:05.901Z,20547
2023-04-21T12:20:05.900Z,23207
2023-04-21T12:21:05.890Z,21803
2023-04-21T12:22:05.887Z,21646
2023-04-21T12:23:05.895Z,10697
2023-04-21T12:24:05.899Z,20658
2023-04-21T12:25:05.895Z,12034
2023-04-21T12:26:05.899Z,8246
2023-04-21T12:27:05.894Z,7815
2023-04-21T12:28:05.905Z,7684
2023-04-21T12:29:05.919Z,7785
2023-04-21T12:30:05.887Z,8010
2023-04-21T12:31:05.957Z,8613
2023-04-21T12:32:06.147Z,9437
2023-04-21T12:33:05.964Z,20947
2023-04-21T12:34:05.979Z,11188
2023-04-21T12:35:05.895Z,13691
2023-04-21T12:36:05.889Z,20262
2023-04-21T12:37:05.895Z,9145
2023-04-21T12:38:05.962Z,8604
2023-04-21T12:39:05.920Z,8639
2023-04-21T12:40:05.901Z,8751
2023-04-21T12:41:05.907Z,8878
2023-04-21T12:42:05.897Z,9477
2023-04-21T12:43:05.912Z,20395
2023-04-21T12:44:05.906Z,20278
2023-04-21T12:45:11.251Z,8869
2023-04-21T12:46:10.288Z,8504
2023-04-21T12:47:10.184Z,8080
2023-04-21T12:48:10.272Z,7562
2023-04-21T12:49:10.207Z,7181
2023-04-21T12:50:10.236Z,6912
2023-04-21T12:51:10.212Z,6827
2023-04-21T12:52:10.198Z,6996
2023-04-21T12:53:10.206Z,6880
2023-04-21T12:54:10.211Z,6965
2023-04-21T12:55:10.190Z,6954
2023-04-21T12:56:10.197Z,6972
2023-04-21T12:57:10.205Z,7125
2023-04-21T12:58:10.209Z,7448
2023-04-21T12:59:10.320Z,6819
2023-04-21T13:00:10.181Z,6723
2023-04-21T13:01:10.244Z,6714
2023-04-21T13:02:10.296Z,6805
2023-04-21T13:03:10.466Z,6908
2023-04-21T13:04:10.621Z,7076
2023-04-21T13:05:10.183Z,7199
2023-04-21T13:06:10.205Z,7369
2023-04-21T13:07:10.194Z,7529
2023-04-21T13:08:10.211Z,7617
2023-04-21T13:09:10.207Z,7711
2023-04-21T13:10:10.185Z,7813
2023-04-21T13:11:10.182Z,8451
2023-04-21T13:12:10.189Z,8358
2023-04-21T13:13:10.199Z,7826
2023-04-21T13:14:10.205Z,7861
2023-04-21T13:15:10.198Z,15951
2023-04-21T13:16:10.188Z,7168
2023-04-21T13:17:10.231Z,7186
2023-04-21T13:18:10.187Z,7297
2023-04-21T13:19:10.175Z,7297
2023-04-21T13:20:10.187Z,8051
2023-04-21T13:21:10.207Z,7741
2023-04-21T13:22:10.201Z,7522
2023-04-21T13:23:10.207Z,7533
2023-04-21T13:24:12.969Z,7724
2023-04-21T13:25:10.190Z,7885
2023-04-21T13:26:10.190Z,7979
2023-04-21T13:27:10.172Z,8222
2023-04-21T13:28:10.190Z,8681
2023-04-21T13:29:10.208Z,17503
2023-04-21T13:30:10.174Z,17512
2023-04-21T13:31:10.255Z,9289
2023-04-21T13:32:10.192Z,7794
2023-04-21T13:33:10.261Z,10976
2023-04-21T13:34:10.282Z,7029
2023-04-21T13:35:10.186Z,6873